• Join FlightAware (Why Join?)
  • Login
  • US Flag 
03:33AM EDT


 

Airport Tracker/Info


-or-


 

Live Flight TrackerFlight Track Log ✈ AWE997 ✈ 25-Apr-2013 ✈ KORD - KPHL

Flight Track Log - Related Links

Times and Time Zones

All times are in EDT time to prevent confusion due to time zone crossing. See the AWE997 flight status page for this flight to view local times or setup timezone preferences in your user account.

Time Position Orientation Groundspeed Altitude Reporting Facility
EDT Latitude Longitude Course Direction KTS MPH feet Rate Location/Type
11:04AM 41.9333 -87.9000 90° East 174 200 2,200  Level Chicago TRACON
11:06AM 41.9515 -87.3825 97° East  Level FlightAware Approximate
11:06AM 41.8456 -87.7861 136° Southeast 221 254 5,400  Level Chicago Center
11:07AM 41.9389 -87.2105 95° East  Level FlightAware Approximate
11:07AM 41.8125 -87.6881 114° Southeast 279 321 8,200  Level Chicago Center
11:08AM 41.9333 -87.0380 90° East  Level FlightAware Approximate
11:08AM 41.8375 -87.5622 75° East 292 336 11,200  Level Chicago Center
11:09AM 41.9333 -86.8784 90° East  Level FlightAware Approximate
11:09AM 41.8633 -87.4428 74° East 325 374 13,200  Level Chicago Center
11:10AM 41.8900 -87.3169 74° East 346 398 15,500 2,160 Climbing Chicago Center
11:11AM 41.9192 -87.1878 73° East 359 413 17,700 1,860 Climbing Chicago Center
11:12AM 41.9461 -87.0536 75° East 370 426 19,400 1,680 Climbing Chicago Center
11:13AM 41.9464 -86.9067 90° East 391 450 21,200 1,440 Climbing Chicago Center
11:14AM 41.9492 -86.7214 89° East 413 475 22,400 1,140 Climbing Chicago Center
11:15AM 41.9522 -86.5753 88° East 444 511 23,600 1,260 Climbing Chicago Center
11:16AM 41.9531 -86.4033 90° East 458 527 25,100 1,500 Climbing Chicago Center
11:17AM 41.9531 -86.1933 90° East 468 539 26,800 1,380 Climbing Chicago Center
11:18AM 41.9364 -86.0156 97° East 479 551 28,000 1,080 Climbing Chicago Center
11:19AM 41.9200 -85.8339 97° East 487 560 29,100 1,020 Climbing Chicago Center
11:20AM 41.9025 -85.6497 97° East 493 567 30,200 960 Climbing Chicago Center
11:21AM 41.8847 -85.4611 97° East 500 575 31,200 840 Climbing Chicago Center
11:22AM 41.8656 -85.2703 98° East 506 582 32,000 960 Climbing Chicago Center
11:23AM 41.8464 -85.0803 98° East 509 586 33,200 960 Climbing Chicago Center
11:24AM 41.8275 -84.8933 98° East 505 581 34,000 840 Climbing Chicago Center
11:25AM 41.8072 -84.7017 98° East 516 594 35,000 480 Climbing Chicago Center
11:26AM 41.7833 -84.4750 98° East 512 589 35,000  Level Chicago Center
11:27AM 41.7764 -84.2836 93° East 514 592 35,000  Level Chicago Center
11:28AM 41.7733 -84.0775 91° East 501 577 35,000  Level Cleveland Center
11:29AM 41.7725 -83.8936 90° East 501 577 35,000  Level Cleveland Center
11:30AM 41.7714 -83.7128 90° East 496 571 35,000  Level Cleveland Center
11:31AM 41.7678 -83.5286 91° East 496 571 35,000  Level Cleveland Center
11:32AM 41.7494 -83.3469 98° East 496 571 35,000  Level Cleveland Center
11:33AM 41.7344 -83.1822 97° East 501 577 35,000  Level Cleveland Center
11:34AM 41.7136 -83.0006 99° East 501 577 35,000  Level Cleveland Center
11:35AM 41.6711 -82.8264 108° East 501 577 35,000  Level Cleveland Center
11:36AM 41.6203 -82.6553 112° Southeast 496 571 35,000  Level Cleveland Center
11:37AM 41.5669 -82.4842 113° Southeast 490 564 35,000  Level Cleveland Center
11:38AM 41.5092 -82.3050 113° Southeast 490 564 35,000  Level Cleveland Center
11:39AM 41.4575 -82.1375 112° Southeast 482 555 35,000  Level Cleveland Center
11:40AM 41.4053 -81.9728 113° Southeast 482 555 35,000  Level Cleveland Center
11:41AM 41.3550 -81.8086 112° Southeast 482 555 35,000  Level Cleveland Center
11:42AM 41.3025 -81.6444 113° Southeast 482 555 35,000  Level Cleveland Center
11:43AM 41.2497 -81.4833 113° Southeast 477 549 35,000  Level Cleveland Center
11:44AM 41.2008 -81.3419 115° Southeast 477 549 35,000  Level Cleveland Center
11:45AM 41.1456 -81.1758 114° Southeast 477 549 35,000  Level Cleveland Center
11:46AM 41.0900 -80.9964 112° Southeast 477 549 35,000  Level Cleveland Center
11:47AM 41.0361 -80.8364 114° Southeast 477 549 35,000  Level Cleveland Center
11:48AM 40.9822 -80.6711 113° Southeast 477 549 35,000  Level Cleveland Center
11:49AM 40.9281 -80.5117 114° Southeast 477 549 35,000  Level Cleveland Center
11:50AM 40.8736 -80.3525 114° Southeast 477 549 35,000  Level Cleveland Center
11:51AM 40.8233 -80.2100 115° Southeast 477 549 35,000  Level Cleveland Center
11:52AM 40.7642 -80.0486 116° Southeast 477 549 35,000  Level Cleveland Center
11:53AM 40.7092 -79.8875 114° Southeast 483 556 35,000  Level Cleveland Center
11:54AM 40.6497 -79.7319 117° Southeast 483 556 35,100  Climbing Cleveland Center
11:55AM 40.5922 -79.5714 115° Southeast 483 556 35,000 -60 Descending Cleveland Center
11:56AM 40.5508 -79.4028 108° East 483 556 35,000  Level Cleveland Center
11:57AM 40.5319 -79.2064 97° East 476 548 35,000  Level Cleveland Center
11:58AM 40.5131 -79.0292 98° East 488 562 35,000  Level Cleveland Center
11:59AM 40.4958 -78.8467 97° East 493 567 35,000  Level Cleveland Center
12:00PM 40.4764 -78.6669 98° East 493 567 35,000  Level Cleveland Center
12:01PM 40.4586 -78.4900 97° East 498 573 35,100  Climbing Cleveland Center
12:02PM 40.4419 -78.3422 98° East 502 578 35,000 -1,140 Descending New York Center
12:03PM 40.4242 -78.1631 97° East 502 578 33,100 -2,640 Descending New York Center
12:04PM 40.4042 -77.9781 98° East 507 583 29,700 -2,580 Descending New York Center
12:05PM 40.3833 -77.8042 99° East 507 583 27,900 -2,460 Descending New York Center
12:06PM 40.3642 -77.6333 98° East 492 566 24,900 -2,820 Descending New York Center
12:07PM 40.3472 -77.4600 97° East 481 554 22,400 -2,580 Descending New York Center
12:08PM 40.3289 -77.3003 99° East 467 537 19,700 -2,220 Descending New York Center
12:09PM 40.3086 -77.1375 99° East 456 525 18,000 -900 Descending New York Center
12:10PM 40.2831 -76.9911 103° East 426 490 18,000 -360 Level New York Center
12:11PM 40.2525 -76.8550 106° East 401 461 17,300 -2,100 Descending New York Center
12:12PM 40.2217 -76.7272 108° East 401 461 13,800 -3,240 Descending New York Center
12:13PM 40.1892 -76.5858 107° East 401 461 11,000 -1,440 Descending New York Center
12:14PM 40.1564 -76.4444 107° East 376 433 11,000  Level New York Center
12:15PM 40.1267 -76.3253 108° East 356 410 11,000 -60 Level New York Center
12:16PM 40.1172 -76.2325 98° East 346 398 10,900 -420 Descending FAA TRACON SMA TRACON (SMA)
12:16PM 40.1133 -76.1833 96° East 350 403 10,600 -900 Descending FAA TRACON SMA TRACON (SMA)
12:17PM 40.1100 -76.1456 97° East 342 394 10,300 -780 Descending FAA TRACON SMA TRACON (SMA)
12:17PM 40.1081 -76.1106 94° East 338 389 10,100 -600 Descending FAA TRACON SMA TRACON (SMA)
12:17PM 40.1047 -76.0639 95° East 327 376 9,900 -480 Descending FAA TRACON SMA TRACON (SMA)
12:18PM 40.1028 -76.0311 94° East 316 364 9,800 -480 Descending FAA TRACON SMA TRACON (SMA)
12:18PM 40.0994 -75.9969 97° East 303 349 9,600 -600 Descending FAA TRACON SMA TRACON (SMA)
12:18PM 40.0967 -75.9547 95° East 305 351 9,400 -480 Descending FAA TRACON SMA TRACON (SMA)
12:19PM 40.0944 -75.9211 95° East 304 350 9,300 -600 Descending FAA TRACON SMA TRACON (SMA)
12:19PM 40.0911 -75.8864 97° East 304 350 9,000 -900 Descending FAA TRACON SMA TRACON (SMA)
12:19PM 40.0892 -75.8458 94° East 304 350 8,700 -780 Descending FAA TRACON SMA TRACON (SMA)
12:20PM 40.0867 -75.8111 95° East 304 350 8,500 -780 Descending FAA TRACON SMA TRACON (SMA)
12:20PM 40.0844 -75.7778 95° East 302 348 8,200 -540 Descending FAA TRACON SMA TRACON (SMA)
12:21PM 40.0800 -75.6989 94° East 299 344 8,000 -240 Descending FAA TRACON SMA TRACON (SMA)
12:21PM 40.0781 -75.6700 95° East 299 344 8,000  Level FAA TRACON SMA TRACON (SMA)
12:21PM 40.0769 -75.6367 92° East 299 344 8,000  Level FAA TRACON SMA TRACON (SMA)
12:22PM 40.0747 -75.5950 94° East 299 344 8,000  Level FAA TRACON SMA TRACON (SMA)
12:22PM 40.0731 -75.5614 94° East 300 345 8,000 -300 Level FAA TRACON SMA TRACON (SMA)
12:22PM 40.0714 -75.5278 94° East 300 345 7,800 -1,200 Descending FAA TRACON SMA TRACON (SMA)
12:23PM 40.0694 -75.4864 93° East 297 342 7,200 -1,500 Descending FAA TRACON SMA TRACON (SMA)
12:23PM 40.0683 -75.4544 93° East 297 342 6,800 -1,380 Descending FAA TRACON SMA TRACON (SMA)
12:23PM 40.0664 -75.4206 94° East 294 338 6,300 -1,200 Descending FAA TRACON SMA TRACON (SMA)
12:24PM 40.0644 -75.3811 94° East 286 329 6,000 -480 Descending FAA TRACON SMA TRACON (SMA)
12:24PM 40.0631 -75.3528 94° East 252 290 6,000  Level FAA TRACON SMA TRACON (SMA)
12:24PM 40.0614 -75.3222 94° East 249 287 6,000  Level FAA TRACON SMA TRACON (SMA)
12:25PM 40.0597 -75.2889 94° East 247 284 6,000  Level FAA TRACON SMA TRACON (SMA)
12:25PM 40.0575 -75.2542 95° East 248 285 6,000  Level FAA TRACON SMA TRACON (SMA)
12:25PM 40.0547 -75.2342 100° East 244 281 6,000  Level FAA TRACON SMA TRACON (SMA)
12:26PM 40.0458 -75.2003 109° East 254 292 6,000  Level FAA TRACON SMA TRACON (SMA)
12:26PM 40.0386 -75.1739 110° East 251 289 6,000  Level FAA TRACON SMA TRACON (SMA)
12:26PM 40.0322 -75.1481 108° East 251 289 6,000 -480 Level FAA TRACON SMA TRACON (SMA)
12:27PM 40.0194 -75.1192 120° Southeast 235 270 5,700 -1,380 Descending FAA TRACON SMA TRACON (SMA)
12:27PM 40.0022 -75.1031 144° Southeast 236 272 5,100 -1,200 Descending FAA TRACON SMA TRACON (SMA)
12:27PM 39.9844 -75.0881 147° Southeast 233 268 4,900 -600 Descending FAA TRACON SMA TRACON (SMA)
12:28PM 39.9678 -75.0750 149° Southeast 218 251 4,700 -900 Descending FAA TRACON SMA TRACON (SMA)
12:28PM 39.9483 -75.0711 171° South 194 223 4,300 -1,200 Descending FAA TRACON SMA TRACON (SMA)